createdAt,value
2023-05-22T00:00:21.857Z,11.44
2023-05-22T00:03:10.757Z,11.73
2023-05-22T00:05:41.281Z,11.72
2023-05-22T00:08:11.750Z,11.66
2023-05-22T00:10:40.395Z,11.63
2023-05-22T00:13:10.051Z,11.58
2023-05-22T00:15:38.500Z,11.64
2023-05-22T00:18:08.314Z,11.62
2023-05-22T00:20:38.895Z,11.62
2023-05-22T00:23:10.400Z,11.64
2023-05-22T00:25:39.447Z,11.58
2023-05-22T00:28:09.154Z,11.57
2023-05-22T00:30:39.099Z,11.48
2023-05-22T00:33:07.411Z,11.41
2023-05-22T00:35:35.869Z,11.31
2023-05-22T00:38:05.446Z,11.40
2023-05-22T00:40:34.031Z,11.38
2023-05-22T00:43:08.494Z,11.40
2023-05-22T00:45:38.797Z,11.39
2023-05-22T00:48:09.656Z,11.41
2023-05-22T00:50:38.515Z,11.38
2023-05-22T00:53:06.929Z,11.38
2023-05-22T00:55:35.382Z,11.44
2023-05-22T00:58:07.905Z,11.45
2023-05-22T01:00:38.654Z,11.41
2023-05-22T01:03:08.100Z,11.46
2023-05-22T01:05:37.294Z,11.42
2023-05-22T01:08:06.262Z,11.41
2023-05-22T01:10:35.520Z,11.41
2023-05-22T01:13:10.598Z,11.43
2023-05-22T01:15:45.470Z,11.41
2023-05-22T01:18:21.639Z,11.40
2023-05-22T01:20:58.280Z,11.28
2023-05-22T01:23:57.788Z,11.21
2023-05-22T01:26:57.204Z,11.16
2023-05-22T01:29:38.325Z,11.19
2023-05-22T01:32:10.957Z,11.06
2023-05-22T01:34:41.598Z,11.08
2023-05-22T01:37:11.361Z,11.09
2023-05-22T01:39:39.449Z,11.12
2023-05-22T01:42:08.470Z,11.09
2023-05-22T01:44:36.773Z,11.03
2023-05-22T01:47:06.232Z,11.09
2023-05-22T01:49:37.129Z,11.11
2023-05-22T01:52:12.272Z,11.08
2023-05-22T01:54:47.301Z,11.13
2023-05-22T01:57:21.978Z,11.19
2023-05-22T01:59:55.550Z,11.10
2023-05-22T02:02:25.943Z,11.06
2023-05-22T02:05:00.786Z,11.06
2023-05-22T02:07:30.264Z,11.06
2023-05-22T02:09:59.717Z,11.09
2023-05-22T02:12:28.564Z,11.08
2023-05-22T02:14:56.810Z,11.02
2023-05-22T02:17:26.118Z,11.10
2023-05-22T02:19:55.670Z,11.12
2023-05-22T02:22:24.069Z,11.03
2023-05-22T02:24:52.232Z,10.99
2023-05-22T02:27:20.887Z,11.07
2023-05-22T02:29:49.005Z,11.10
2023-05-22T02:32:17.751Z,11.19
2023-05-22T02:34:45.926Z,11.29
2023-05-22T02:37:16.093Z,11.31
2023-05-22T02:39:44.253Z,11.34
2023-05-22T02:42:12.656Z,11.39
2023-05-22T02:44:40.767Z,11.29
2023-05-22T02:47:09.243Z,11.45
2023-05-22T02:49:37.380Z,11.47
2023-05-22T02:52:06.375Z,11.49
2023-05-22T02:54:35.922Z,11.51
2023-05-22T02:57:04.477Z,11.67
2023-05-22T02:59:32.891Z,11.75
2023-05-22T03:02:01.437Z,11.85
2023-05-22T03:04:30.516Z,11.99
2023-05-22T03:06:59.164Z,12.09
2023-05-22T03:09:27.315Z,12.11
2023-05-22T03:11:57.166Z,12.22
2023-05-22T03:14:25.373Z,12.20
2023-05-22T03:16:54.768Z,12.29
2023-05-22T03:19:24.977Z,12.34
2023-05-22T03:21:53.572Z,12.53
2023-05-22T03:24:21.836Z,12.66
2023-05-22T03:26:50.360Z,13.16
2023-05-22T03:29:20.081Z,13.59
2023-05-22T03:31:48.745Z,13.97
2023-05-22T03:34:17.079Z,13.93
2023-05-22T03:36:46.130Z,14.10
2023-05-22T03:39:14.298Z,14.31
2023-05-22T03:41:42.929Z,14.56
2023-05-22T03:44:11.143Z,15.03
2023-05-22T03:46:40.939Z,15.51
2023-05-22T03:49:09.070Z,15.97
2023-05-22T03:51:37.459Z,16.42
2023-05-22T03:54:06.094Z,16.20
2023-05-22T03:56:34.487Z,16.38
2023-05-22T03:59:02.594Z,16.80
2023-05-22T04:01:31.044Z,16.85
2023-05-22T04:04:00.938Z,16.82
2023-05-22T04:06:32.901Z,17.11
2023-05-22T04:09:02.260Z,17.80
2023-05-22T04:11:32.209Z,17.89
2023-05-22T04:14:04.656Z,18.13
2023-05-22T04:16:33.273Z,18.19
2023-05-22T04:19:03.432Z,18.26
2023-05-22T04:21:34.462Z,17.86
2023-05-22T04:24:07.344Z,18.57
2023-05-22T04:26:36.343Z,18.89
2023-05-22T04:29:04.576Z,19.41
2023-05-22T04:31:33.292Z,19.66
2023-05-22T04:34:02.962Z,19.60
2023-05-22T04:36:31.445Z,19.34
2023-05-22T04:39:00.458Z,19.29
2023-05-22T04:41:28.927Z,18.81
2023-05-22T04:43:57.040Z,18.26
2023-05-22T04:46:25.662Z,18.22
2023-05-22T04:48:53.955Z,18.20
2023-05-22T04:51:24.040Z,17.71
2023-05-22T04:53:52.279Z,17.79
2023-05-22T04:56:31.791Z,17.80
2023-05-22T04:59:04.847Z,17.81
2023-05-22T05:01:35.075Z,17.64
2023-05-22T05:04:04.255Z,17.89
2023-05-22T05:06:34.803Z,17.82
2023-05-22T05:09:03.010Z,17.92
2023-05-22T05:11:31.515Z,18.06
2023-05-22T05:13:59.685Z,18.06
2023-05-22T05:16:28.320Z,18.13
2023-05-22T05:18:56.653Z,18.11
2023-05-22T05:21:28.017Z,17.93
2023-05-22T05:23:57.658Z,18.01
2023-05-22T05:26:27.281Z,18.29
2023-05-22T05:28:56.744Z,18.61
2023-05-22T05:31:25.425Z,18.79
2023-05-22T05:33:54.819Z,18.95
2023-05-22T05:36:24.900Z,19.04
2023-05-22T05:38:53.055Z,19.23
2023-05-22T05:41:23.113Z,19.39
2023-05-22T05:43:52.295Z,19.43
2023-05-22T05:46:20.504Z,19.33
2023-05-22T05:48:48.763Z,19.64
2023-05-22T05:51:17.152Z,19.82
2023-05-22T05:53:45.394Z,19.87
2023-05-22T05:56:13.885Z,19.90
2023-05-22T05:58:43.421Z,20.01
2023-05-22T06:01:12.769Z,19.99
2023-05-22T06:03:41.342Z,20.07
2023-05-22T06:06:10.735Z,20.23
2023-05-22T06:08:39.003Z,20.26
2023-05-22T06:11:07.473Z,20.08
2023-05-22T06:13:35.601Z,20.07
2023-05-22T06:16:06.895Z,20.14
2023-05-22T06:18:35.226Z,20.35
2023-05-22T06:21:03.674Z,20.62
2023-05-22T06:23:32.408Z,20.57
2023-05-22T06:26:01.191Z,20.52
2023-05-22T06:28:29.432Z,20.75
2023-05-22T06:30:59.231Z,20.95
2023-05-22T06:33:28.945Z,21.02
2023-05-22T06:35:57.497Z,20.94
2023-05-22T06:38:26.630Z,20.99
2023-05-22T06:40:54.820Z,20.92
2023-05-22T06:43:23.009Z,21.18
2023-05-22T06:45:51.468Z,21.20
2023-05-22T06:48:19.897Z,20.84
2023-05-22T06:50:49.708Z,20.74
2023-05-22T06:53:17.927Z,20.86
2023-05-22T06:55:46.400Z,20.67
2023-05-22T06:58:14.584Z,20.42
2023-05-22T07:00:43.049Z,20.44
2023-05-22T07:03:12.068Z,20.82
2023-05-22T07:05:40.331Z,21.02
2023-05-22T07:08:10.739Z,21.17
2023-05-22T07:10:39.442Z,21.33
2023-05-22T07:13:07.747Z,21.34
2023-05-22T07:15:36.274Z,21.25
2023-05-22T07:18:04.668Z,21.12
2023-05-22T07:20:33.322Z,21.31
2023-05-22T07:23:01.526Z,21.41
2023-05-22T07:25:31.575Z,21.44
2023-05-22T07:28:02.110Z,21.46
2023-05-22T07:30:31.456Z,21.46
2023-05-22T07:32:59.736Z,21.31
2023-05-22T07:35:28.246Z,21.47
2023-05-22T07:37:56.576Z,21.39
2023-05-22T07:40:26.560Z,21.30
2023-05-22T07:42:56.622Z,21.71
2023-05-22T07:45:26.583Z,21.87
2023-05-22T07:47:56.268Z,21.92
2023-05-22T07:50:26.792Z,21.92
2023-05-22T07:52:55.010Z,21.75
2023-05-22T07:55:23.547Z,21.85
2023-05-22T07:57:53.082Z,21.76
2023-05-22T08:00:23.543Z,21.88
2023-05-22T08:02:51.707Z,22.22
2023-05-22T08:05:20.599Z,22.44
2023-05-22T08:07:48.921Z,22.47
2023-05-22T08:10:18.818Z,22.41
2023-05-22T08:12:47.221Z,22.33
2023-05-22T08:15:16.220Z,22.52
2023-05-22T08:17:45.879Z,22.55
2023-05-22T08:20:14.687Z,22.60
2023-05-22T08:22:42.976Z,22.79
2023-05-22T08:25:11.511Z,22.93
2023-05-22T08:27:39.685Z,23.12
2023-05-22T08:30:09.726Z,23.23
2023-05-22T08:32:37.943Z,23.19
2023-05-22T08:35:08.866Z,23.07
2023-05-22T08:37:37.179Z,23.12
2023-05-22T08:40:07.284Z,23.21
2023-05-22T08:42:35.525Z,23.37
2023-05-22T08:45:04.441Z,23.60
2023-05-22T08:47:35.414Z,23.57
2023-05-22T08:50:04.692Z,23.44
2023-05-22T08:52:44.230Z,23.32
2023-05-22T08:55:12.940Z,23.17
2023-05-22T08:57:42.400Z,23.19
2023-05-22T09:00:11.649Z,22.87
2023-05-22T09:02:39.885Z,23.04
2023-05-22T09:05:09.726Z,22.91
2023-05-22T09:07:40.806Z,22.91
2023-05-22T09:10:09.760Z,23.13
2023-05-22T09:12:38.221Z,23.19
2023-05-22T09:19:06.545Z,23.47
2023-05-22T09:21:38.135Z,23.52
2023-05-22T09:24:09.312Z,23.36
2023-05-22T09:26:38.025Z,22.99
2023-05-22T09:29:07.385Z,23.36
2023-05-22T09:31:43.133Z,23.08
2023-05-22T09:34:14.344Z,23.46
2023-05-22T09:36:43.150Z,23.34
2023-05-22T09:39:12.739Z,23.56
2023-05-22T09:41:41.439Z,23.40
2023-05-22T09:44:17.407Z,23.69
2023-05-22T09:46:48.309Z,24.19
2023-05-22T09:49:17.485Z,24.24
2023-05-22T09:51:48.978Z,24.12
2023-05-22T09:54:21.730Z,24.10
2023-05-22T09:56:51.602Z,24.45
2023-05-22T09:59:22.591Z,24.63
2023-05-22T10:01:51.924Z,24.57
2023-05-22T10:04:22.967Z,24.99
2023-05-22T10:06:53.124Z,24.88
2023-05-22T10:09:30.787Z,24.23
2023-05-22T10:12:04.408Z,24.84
2023-05-22T10:14:33.188Z,24.99
2023-05-22T10:17:06.688Z,24.44
2023-05-22T10:19:39.683Z,24.16
2023-05-22T10:22:10.209Z,24.00
2023-05-22T10:24:41.303Z,23.45
2023-05-22T10:27:09.711Z,23.60
2023-05-22T10:29:46.342Z,23.17
2023-05-22T10:32:22.700Z,23.07
2023-05-22T10:34:59.135Z,23.12
2023-05-22T10:37:43.296Z,23.16
2023-05-22T10:40:16.206Z,23.17
2023-05-22T10:42:45.197Z,23.46
2023-05-22T10:45:13.396Z,23.24
2023-05-22T10:47:42.275Z,23.27
2023-05-22T10:50:12.072Z,23.47
2023-05-22T10:52:41.588Z,23.29
2023-05-22T10:55:10.288Z,23.49
2023-05-22T10:57:40.761Z,23.80
2023-05-22T11:00:11.574Z,23.57
2023-05-22T11:02:42.466Z,23.56
2023-05-22T11:05:36.467Z,23.45
2023-05-22T11:08:39.318Z,23.49
2023-05-22T11:11:16.808Z,23.77
2023-05-22T11:13:52.967Z,23.64
2023-05-22T11:16:22.557Z,22.99
2023-05-22T11:18:51.069Z,23.39
2023-05-22T11:21:19.258Z,23.24
2023-05-22T11:23:48.639Z,23.29
2023-05-22T11:26:27.089Z,23.60
2023-05-22T11:29:00.856Z,23.27
2023-05-22T11:31:30.735Z,23.11
2023-05-22T11:33:59.435Z,23.09
2023-05-22T11:36:29.611Z,23.10
2023-05-22T11:39:00.116Z,23.48
2023-05-22T11:41:36.996Z,23.56
2023-05-22T11:44:09.788Z,23.28
2023-05-22T11:46:39.965Z,23.18
2023-05-22T11:49:10.398Z,23.28
2023-05-22T11:51:40.513Z,23.15
2023-05-22T11:54:09.043Z,22.94
2023-05-22T11:56:37.170Z,23.09
2023-05-22T11:59:07.441Z,23.46
2023-05-22T12:01:36.459Z,23.24
2023-05-22T12:04:06.223Z,23.29
2023-05-22T12:06:34.618Z,23.17
2023-05-22T12:09:03.768Z,23.39
2023-05-22T12:11:36.363Z,23.44
2023-05-22T12:14:06.343Z,23.56
2023-05-22T12:16:37.242Z,23.16
2023-05-22T12:19:12.335Z,23.42
2023-05-22T12:21:41.955Z,23.05
2023-05-22T12:24:12.562Z,23.20
2023-05-22T12:26:40.783Z,22.90
2023-05-22T12:29:10.598Z,22.88
2023-05-22T12:31:39.160Z,23.16
2023-05-22T12:34:08.924Z,23.33
2023-05-22T12:36:40.030Z,23.54
2023-05-22T12:39:10.538Z,23.19
2023-05-22T12:41:39.190Z,23.23
2023-05-22T12:44:07.718Z,23.13
2023-05-22T12:46:37.615Z,23.09
2023-05-22T12:49:06.436Z,23.29
2023-05-22T12:51:34.732Z,23.37
2023-05-22T12:54:03.872Z,23.26
2023-05-22T12:56:32.754Z,22.97
2023-05-22T12:59:01.058Z,23.68
2023-05-22T13:01:29.505Z,23.96
2023-05-22T13:03:59.339Z,23.58
2023-05-22T13:06:30.223Z,23.66
2023-05-22T13:08:58.972Z,23.86
2023-05-22T13:11:27.317Z,23.78
2023-05-22T13:13:56.024Z,23.85
2023-05-22T13:16:24.228Z,23.60
2023-05-22T13:18:52.816Z,23.29
2023-05-22T13:21:24.058Z,23.79
2023-05-22T13:23:53.707Z,23.70
2023-05-22T13:26:22.848Z,23.45
2023-05-22T13:28:51.640Z,23.32
2023-05-22T13:31:20.006Z,23.28
2023-05-22T13:33:48.606Z,23.72
2023-05-22T13:36:16.770Z,23.72
2023-05-22T13:38:46.819Z,24.01
2023-05-22T13:41:17.793Z,23.87
2023-05-22T13:43:46.574Z,23.72
2023-05-22T13:46:14.791Z,23.91
2023-05-22T13:48:43.221Z,23.97
2023-05-22T13:51:11.367Z,23.70
2023-05-22T13:53:39.872Z,23.71
2023-05-22T13:56:09.435Z,23.70
2023-05-22T13:58:37.923Z,23.90
2023-05-22T14:01:06.148Z,23.56
2023-05-22T14:03:35.089Z,23.71
2023-05-22T14:06:03.302Z,23.60
2023-05-22T14:08:31.810Z,23.49
2023-05-22T14:10:59.975Z,23.52
2023-05-22T14:13:29.942Z,23.25
2023-05-22T14:15:58.201Z,23.14
2023-05-22T14:18:26.670Z,23.42
2023-05-22T14:20:54.945Z,23.35
2023-05-22T14:23:23.650Z,23.32
2023-05-22T14:25:52.150Z,23.46
2023-05-22T14:28:20.561Z,23.52
2023-05-22T14:30:53.071Z,23.26
2023-05-22T14:33:21.582Z,23.39
2023-05-22T14:35:51.676Z,23.44
2023-05-22T14:38:20.167Z,23.61
2023-05-22T14:40:48.398Z,23.38
2023-05-22T14:43:16.871Z,23.23
2023-05-22T14:45:45.099Z,23.65
2023-05-22T14:48:15.077Z,23.65
2023-05-22T14:50:43.295Z,23.45
2023-05-22T14:53:11.825Z,23.22
2023-05-22T14:55:40.072Z,23.58
2023-05-22T14:58:08.759Z,23.50
2023-05-22T15:00:37.216Z,23.18
2023-05-22T15:03:05.637Z,23.29
2023-05-22T15:05:35.308Z,23.17
2023-05-22T15:08:04.098Z,23.24
2023-05-22T15:10:32.241Z,23.33
2023-05-22T15:13:00.701Z,23.23
2023-05-22T15:15:28.896Z,23.34
2023-05-22T15:18:00.450Z,23.35
2023-05-22T15:20:28.751Z,23.38
2023-05-22T15:22:58.719Z,23.28
2023-05-22T15:25:27.215Z,23.32
2023-05-22T15:27:55.649Z,23.73
2023-05-22T15:30:24.124Z,23.26
2023-05-22T15:32:52.660Z,23.46
2023-05-22T15:35:21.049Z,23.65
2023-05-22T15:37:49.488Z,24.03
2023-05-22T15:40:22.746Z,23.94
2023-05-22T15:42:52.700Z,24.33
2023-05-22T15:45:21.418Z,24.72
2023-05-22T15:47:50.134Z,25.63
2023-05-22T15:50:18.474Z,26.47
2023-05-22T15:52:47.018Z,26.49
2023-05-22T15:55:15.234Z,26.42
2023-05-22T15:57:45.065Z,24.68
2023-05-22T16:00:14.908Z,24.14
2023-05-22T16:02:44.115Z,23.82
2023-05-22T16:05:12.491Z,23.55
2023-05-22T16:07:40.918Z,23.93
2023-05-22T16:10:10.104Z,23.92
2023-05-22T16:12:41.008Z,24.43
2023-05-22T16:15:11.845Z,24.54
2023-05-22T16:17:40.667Z,24.35
2023-05-22T16:20:10.112Z,24.91
2023-05-22T16:22:47.914Z,25.86
2023-05-22T16:25:18.061Z,26.80
2023-05-22T16:27:48.957Z,28.31
2023-05-22T16:30:19.045Z,29.21
2023-05-22T16:32:49.565Z,29.10
2023-05-22T16:35:19.585Z,27.34
2023-05-22T16:37:48.499Z,29.29
2023-05-22T16:40:17.575Z,29.39
2023-05-22T16:42:46.012Z,29.70
2023-05-22T16:45:14.249Z,28.98
2023-05-22T16:47:44.123Z,28.71
2023-05-22T16:50:12.504Z,28.66
2023-05-22T16:52:43.740Z,29.01
2023-05-22T16:55:11.912Z,29.10
2023-05-22T16:57:41.022Z,28.41
2023-05-22T17:00:11.009Z,28.30
2023-05-22T17:02:39.789Z,28.83
2023-05-22T17:05:10.252Z,28.02
2023-05-22T17:07:38.691Z,27.97
2023-05-22T17:10:07.855Z,27.97
2023-05-22T17:12:36.355Z,27.16
2023-05-22T17:15:05.930Z,27.31
2023-05-22T17:17:34.386Z,26.89
2023-05-22T17:20:04.461Z,26.02
2023-05-22T17:22:36.090Z,24.28
2023-05-22T17:25:04.917Z,23.65
2023-05-22T17:27:36.406Z,23.25
2023-05-22T17:30:06.418Z,22.75
2023-05-22T17:32:35.266Z,22.31
2023-05-22T17:35:04.974Z,22.03
2023-05-22T17:37:34.839Z,21.58
2023-05-22T17:40:05.939Z,21.53
2023-05-22T17:42:34.853Z,21.53
2023-05-22T17:45:08.670Z,21.15
2023-05-22T17:47:37.157Z,21.00
2023-05-22T17:50:06.241Z,20.86
2023-05-22T17:52:37.285Z,20.65
2023-05-22T17:55:06.755Z,20.59
2023-05-22T17:57:35.201Z,20.44
2023-05-22T18:00:05.848Z,20.48
2023-05-22T18:02:34.489Z,20.30
2023-05-22T18:05:02.695Z,20.11
2023-05-22T18:07:31.082Z,20.09
2023-05-22T18:10:00.622Z,19.96
2023-05-22T18:12:31.991Z,19.71
2023-05-22T18:15:00.606Z,19.62
2023-05-22T18:17:29.116Z,19.18
2023-05-22T18:19:57.424Z,19.37
2023-05-22T18:22:26.796Z,19.24
2023-05-22T18:24:54.924Z,19.11
2023-05-22T18:27:24.737Z,18.76
2023-05-22T18:29:53.013Z,18.89
2023-05-22T18:32:21.417Z,18.70
2023-05-22T18:34:49.624Z,18.62
2023-05-22T18:37:19.017Z,18.51
2023-05-22T18:39:47.935Z,18.32
2023-05-22T18:42:16.384Z,18.06
2023-05-22T18:44:48.182Z,17.91
2023-05-22T18:47:17.979Z,17.74
2023-05-22T18:49:46.192Z,17.56
2023-05-22T18:52:14.724Z,17.42
2023-05-22T18:54:43.444Z,17.26
2023-05-22T18:57:12.006Z,17.15
2023-05-22T18:59:41.359Z,16.97
2023-05-22T19:02:11.716Z,16.82
2023-05-22T19:04:40.798Z,16.62
2023-05-22T19:07:09.398Z,16.55
2023-05-22T19:09:38.236Z,16.40
2023-05-22T19:12:10.879Z,16.35
2023-05-22T19:14:39.039Z,16.27
2023-05-22T19:17:07.661Z,16.17
2023-05-22T19:19:37.351Z,16.23
2023-05-22T19:22:19.891Z,16.18
2023-05-22T19:24:48.179Z,16.12
2023-05-22T19:27:16.626Z,16.02
2023-05-22T19:29:45.460Z,15.89
2023-05-22T19:32:14.427Z,15.79
2023-05-22T19:34:43.948Z,15.80
2023-05-22T19:37:12.409Z,15.79
2023-05-22T19:39:40.642Z,15.78
2023-05-22T19:42:10.773Z,15.76
2023-05-22T19:44:39.294Z,15.78
2023-05-22T19:47:08.159Z,15.65
2023-05-22T19:49:37.157Z,15.68
2023-05-22T19:52:07.290Z,15.65
2023-05-22T19:54:35.797Z,15.67
2023-05-22T19:57:04.454Z,15.55
2023-05-22T19:59:35.833Z,15.52
2023-05-22T20:02:05.233Z,15.54
2023-05-22T20:04:34.414Z,15.50
2023-05-22T20:07:05.218Z,15.43
2023-05-22T20:09:34.702Z,15.40
2023-05-22T20:12:03.289Z,15.36
2023-05-22T20:14:31.542Z,15.37
2023-05-22T20:17:00.103Z,15.25
2023-05-22T20:19:28.604Z,15.19
2023-05-22T20:21:58.252Z,15.09
2023-05-22T20:24:26.984Z,14.98
2023-05-22T20:26:56.960Z,14.90
2023-05-22T20:29:25.573Z,14.79
2023-05-22T20:31:54.944Z,14.67
2023-05-22T20:34:23.514Z,14.58
2023-05-22T20:36:53.064Z,14.43
2023-05-22T20:39:22.233Z,14.35
2023-05-22T20:41:50.886Z,14.24
2023-05-22T20:44:23.628Z,14.21
2023-05-22T20:46:53.331Z,14.06
2023-05-22T20:49:21.804Z,13.97
2023-05-22T20:51:51.511Z,13.98
2023-05-22T20:54:19.549Z,13.91
2023-05-22T20:56:48.100Z,13.81
2023-05-22T20:59:16.262Z,13.75
2023-05-22T21:01:46.153Z,13.81
2023-05-22T21:04:14.252Z,13.75
2023-05-22T21:06:42.670Z,13.74
2023-05-22T21:09:10.855Z,13.68
2023-05-22T21:11:39.258Z,13.64
2023-05-22T21:14:07.357Z,13.64
2023-05-22T21:16:39.133Z,13.59
2023-05-22T21:19:09.091Z,13.62
2023-05-22T21:21:41.587Z,13.71
2023-05-22T21:24:10.152Z,13.56
2023-05-22T21:26:38.775Z,13.71
2023-05-22T21:29:07.081Z,13.66
2023-05-22T21:31:35.981Z,13.51
2023-05-22T21:34:05.579Z,13.55
2023-05-22T21:36:36.391Z,13.45
2023-05-22T21:39:04.849Z,13.38
2023-05-22T21:41:33.303Z,13.31
2023-05-22T21:44:01.425Z,13.25
2023-05-22T21:46:29.867Z,13.23
2023-05-22T21:48:57.983Z,13.23
2023-05-22T21:51:26.431Z,13.18
2023-05-22T21:53:55.955Z,13.12
2023-05-22T21:56:24.385Z,13.09
2023-05-22T21:58:52.491Z,13.02
2023-05-22T22:01:20.817Z,12.95
2023-05-22T22:03:49.293Z,12.87
2023-05-22T22:06:17.553Z,12.84
2023-05-22T22:08:45.968Z,12.75
2023-05-22T22:11:15.497Z,12.65
2023-05-22T22:13:43.979Z,12.68
2023-05-22T22:16:12.380Z,12.69
2023-05-22T22:18:40.934Z,12.66
2023-05-22T22:21:09.075Z,12.63
2023-05-22T22:23:37.561Z,12.53
2023-05-22T22:26:05.673Z,12.54
2023-05-22T22:28:35.602Z,12.54
2023-05-22T22:31:03.822Z,12.53
2023-05-22T22:33:32.819Z,12.53
2023-05-22T22:36:01.089Z,12.51
2023-05-22T22:38:32.757Z,12.53
2023-05-22T22:41:01.658Z,12.51
2023-05-22T22:43:30.051Z,12.51
2023-05-22T22:45:59.589Z,12.49
2023-05-22T22:48:28.819Z,12.45
2023-05-22T22:50:57.932Z,12.39
2023-05-22T22:53:26.339Z,12.33
2023-05-22T22:55:56.756Z,12.30
2023-05-22T22:58:25.336Z,12.24
2023-05-22T23:00:54.632Z,12.27
2023-05-22T23:03:24.492Z,12.25
2023-05-22T23:05:52.635Z,12.21
2023-05-22T23:08:21.044Z,12.27
2023-05-22T23:10:49.217Z,12.19
2023-05-22T23:13:17.633Z,12.11
2023-05-22T23:15:45.813Z,12.04
2023-05-22T23:18:14.354Z,12.06
2023-05-22T23:20:45.068Z,12.07
2023-05-22T23:23:13.532Z,11.90
2023-05-22T23:25:42.018Z,11.93
2023-05-22T23:28:10.541Z,11.94
2023-05-22T23:30:38.668Z,11.97
2023-05-22T23:33:07.723Z,11.93
2023-05-22T23:35:36.012Z,11.93
2023-05-22T23:38:05.815Z,11.79
2023-05-22T23:40:34.013Z,11.88
2023-05-22T23:43:02.455Z,11.84
2023-05-22T23:45:30.849Z,11.87
2023-05-22T23:47:59.398Z,11.79
2023-05-22T23:50:27.556Z,11.77
2023-05-22T23:52:55.972Z,11.73
2023-05-22T23:55:25.529Z,11.74
2023-05-22T23:57:53.942Z,11.69
